sensor_id;sensor_type;location;lat;lon;timestamp;P1;durP1;ratioP1;P2;durP2;ratioP2
66741;SDS011;53654;54.152;19.432;2023-03-01T00:01:35;39.00;;;30.20;;
66741;SDS011;53654;54.152;19.432;2023-03-01T00:04:04;37.00;;;29.80;;
66741;SDS011;53654;54.152;19.432;2023-03-01T00:06:32;37.70;;;30.60;;
66741;SDS011;53654;54.152;19.432;2023-03-01T00:09:00;37.90;;;29.90;;
66741;SDS011;53654;54.152;19.432;2023-03-01T00:11:29;42.00;;;33.00;;
66741;SDS011;53654;54.152;19.432;2023-03-01T00:13:59;42.90;;;34.40;;
66741;SDS011;53654;54.152;19.432;2023-03-01T00:16:33;40.60;;;32.50;;
66741;SDS011;53654;54.152;19.432;2023-03-01T00:19:02;41.50;;;31.50;;
66741;SDS011;53654;54.152;19.432;2023-03-01T00:21:31;43.50;;;35.10;;
66741;SDS011;53654;54.152;19.432;2023-03-01T00:23:59;45.90;;;36.50;;
66741;SDS011;53654;54.152;19.432;2023-03-01T00:26:27;45.80;;;35.80;;
66741;SDS011;53654;54.152;19.432;2023-03-01T00:28:57;45.20;;;35.20;;
66741;SDS011;53654;54.152;19.432;2023-03-01T00:31:27;46.10;;;37.10;;
66741;SDS011;53654;54.152;19.432;2023-03-01T00:33:58;53.60;;;42.20;;
66741;SDS011;53654;54.152;19.432;2023-03-01T00:36:30;54.80;;;43.50;;
66741;SDS011;53654;54.152;19.432;2023-03-01T00:39:02;50.20;;;39.20;;
66741;SDS011;53654;54.152;19.432;2023-03-01T00:41:32;50.10;;;39.20;;
66741;SDS011;53654;54.152;19.432;2023-03-01T00:44:02;52.10;;;41.60;;
66741;SDS011;53654;54.152;19.432;2023-03-01T00:46:30;52.50;;;41.00;;
66741;SDS011;53654;54.152;19.432;2023-03-01T00:48:59;48.60;;;36.90;;
66741;SDS011;53654;54.152;19.432;2023-03-01T00:51:29;48.40;;;37.10;;
66741;SDS011;53654;54.152;19.432;2023-03-01T00:53:59;47.50;;;36.20;;
66741;SDS011;53654;54.152;19.432;2023-03-01T00:56:28;45.60;;;33.80;;
66741;SDS011;53654;54.152;19.432;2023-03-01T00:58:58;46.10;;;35.50;;
66741;SDS011;53654;54.152;19.432;2023-03-01T01:01:27;46.70;;;35.30;;
66741;SDS011;53654;54.152;19.432;2023-03-01T01:04:15;42.00;;;33.90;;
66741;SDS011;53654;54.152;19.432;2023-03-01T01:06:44;40.40;;;32.90;;
66741;SDS011;53654;54.152;19.432;2023-03-01T01:09:15;42.40;;;33.40;;
66741;SDS011;53654;54.152;19.432;2023-03-01T01:11:45;43.90;;;32.90;;
66741;SDS011;53654;54.152;19.432;2023-03-01T01:14:16;44.00;;;34.30;;
66741;SDS011;53654;54.152;19.432;2023-03-01T01:16:45;41.40;;;33.10;;
66741;SDS011;53654;54.152;19.432;2023-03-01T01:19:14;41.20;;;32.30;;
66741;SDS011;53654;54.152;19.432;2023-03-01T01:21:43;40.00;;;31.40;;
66741;SDS011;53654;54.152;19.432;2023-03-01T01:24:11;40.60;;;31.20;;
66741;SDS011;53654;54.152;19.432;2023-03-01T01:26:39;40.90;;;31.80;;
66741;SDS011;53654;54.152;19.432;2023-03-01T01:29:08;41.00;;;31.70;;
66741;SDS011;53654;54.152;19.432;2023-03-01T01:31:37;42.70;;;32.40;;
66741;SDS011;53654;54.152;19.432;2023-03-01T01:34:07;44.50;;;31.80;;
66741;SDS011;53654;54.152;19.432;2023-03-01T01:36:40;40.10;;;31.40;;
66741;SDS011;53654;54.152;19.432;2023-03-01T01:39:08;40.20;;;30.40;;
66741;SDS011;53654;54.152;19.432;2023-03-01T01:41:41;40.40;;;31.30;;
66741;SDS011;53654;54.152;19.432;2023-03-01T01:51:47;41.70;;;32.10;;
66741;SDS011;53654;54.152;19.432;2023-03-01T01:54:25;44.00;;;33.80;;
66741;SDS011;53654;54.152;19.432;2023-03-01T01:56:59;53.10;;;38.00;;
66741;SDS011;53654;54.152;19.432;2023-03-01T01:59:31;61.70;;;41.30;;
66741;SDS011;53654;54.152;19.432;2023-03-01T02:02:02;95.70;;;54.00;;
66741;SDS011;53654;54.152;19.432;2023-03-01T02:04:32;98.30;;;55.50;;
66741;SDS011;53654;54.152;19.432;2023-03-01T02:07:06;63.70;;;41.00;;
66741;SDS011;53654;54.152;19.432;2023-03-01T02:09:46;40.30;;;31.10;;
66741;SDS011;53654;54.152;19.432;2023-03-01T02:12:16;38.30;;;28.40;;
66741;SDS011;53654;54.152;19.432;2023-03-01T02:14:47;34.90;;;26.10;;
66741;SDS011;53654;54.152;19.432;2023-03-01T02:17:16;33.80;;;26.60;;
66741;SDS011;53654;54.152;19.432;2023-03-01T02:22:35;28.40;;;23.80;;
66741;SDS011;53654;54.152;19.432;2023-03-01T02:28:00;31.00;;;23.90;;
66741;SDS011;53654;54.152;19.432;2023-03-01T02:30:35;29.90;;;23.60;;
66741;SDS011;53654;54.152;19.432;2023-03-01T02:33:04;31.10;;;24.50;;
66741;SDS011;53654;54.152;19.432;2023-03-01T02:35:36;29.10;;;24.70;;
66741;SDS011;53654;54.152;19.432;2023-03-01T02:38:06;31.80;;;25.60;;
66741;SDS011;53654;54.152;19.432;2023-03-01T02:40:36;33.20;;;25.70;;
66741;SDS011;53654;54.152;19.432;2023-03-01T02:43:08;33.40;;;25.90;;
66741;SDS011;53654;54.152;19.432;2023-03-01T02:45:43;34.50;;;27.10;;
66741;SDS011;53654;54.152;19.432;2023-03-01T02:48:17;35.50;;;28.00;;
66741;SDS011;53654;54.152;19.432;2023-03-01T02:50:52;33.30;;;25.60;;
66741;SDS011;53654;54.152;19.432;2023-03-01T02:56:37;25.20;;;20.90;;
66741;SDS011;53654;54.152;19.432;2023-03-01T02:59:06;26.50;;;21.40;;
66741;SDS011;53654;54.152;19.432;2023-03-01T03:01:34;28.60;;;22.20;;
66741;SDS011;53654;54.152;19.432;2023-03-01T03:04:11;30.30;;;22.80;;
66741;SDS011;53654;54.152;19.432;2023-03-01T03:06:48;34.40;;;25.10;;
66741;SDS011;53654;54.152;19.432;2023-03-01T03:09:18;53.60;;;36.60;;
66741;SDS011;53654;54.152;19.432;2023-03-01T03:11:46;48.70;;;32.30;;
66741;SDS011;53654;54.152;19.432;2023-03-01T03:14:15;36.00;;;26.90;;
66741;SDS011;53654;54.152;19.432;2023-03-01T03:16:48;33.60;;;23.90;;
66741;SDS011;53654;54.152;19.432;2023-03-01T03:19:18;24.90;;;20.70;;
66741;SDS011;53654;54.152;19.432;2023-03-01T03:21:46;25.70;;;20.60;;
66741;SDS011;53654;54.152;19.432;2023-03-01T03:24:15;26.00;;;20.30;;
66741;SDS011;53654;54.152;19.432;2023-03-01T03:26:43;25.60;;;20.30;;
66741;SDS011;53654;54.152;19.432;2023-03-01T03:29:11;25.30;;;19.70;;
66741;SDS011;53654;54.152;19.432;2023-03-01T03:31:39;23.20;;;19.40;;
66741;SDS011;53654;54.152;19.432;2023-03-01T03:34:07;23.60;;;19.00;;
66741;SDS011;53654;54.152;19.432;2023-03-01T03:36:35;23.90;;;19.00;;
66741;SDS011;53654;54.152;19.432;2023-03-01T03:39:03;23.00;;;19.10;;
66741;SDS011;53654;54.152;19.432;2023-03-01T03:41:34;26.50;;;20.40;;
66741;SDS011;53654;54.152;19.432;2023-03-01T03:44:02;28.00;;;22.70;;
66741;SDS011;53654;54.152;19.432;2023-03-01T03:46:31;30.00;;;22.90;;
66741;SDS011;53654;54.152;19.432;2023-03-01T03:48:59;28.70;;;23.10;;
66741;SDS011;53654;54.152;19.432;2023-03-01T03:51:27;27.60;;;22.00;;
66741;SDS011;53654;54.152;19.432;2023-03-01T03:53:55;28.20;;;22.70;;
66741;SDS011;53654;54.152;19.432;2023-03-01T03:56:23;28.50;;;22.30;;
66741;SDS011;53654;54.152;19.432;2023-03-01T03:58:55;28.50;;;22.40;;
66741;SDS011;53654;54.152;19.432;2023-03-01T04:01:23;29.70;;;23.70;;
66741;SDS011;53654;54.152;19.432;2023-03-01T04:03:51;28.70;;;22.40;;
66741;SDS011;53654;54.152;19.432;2023-03-01T04:06:22;28.40;;;22.50;;
66741;SDS011;53654;54.152;19.432;2023-03-01T04:08:50;34.20;;;26.20;;
66741;SDS011;53654;54.152;19.432;2023-03-01T04:11:18;32.80;;;25.10;;
66741;SDS011;53654;54.152;19.432;2023-03-01T04:13:57;27.50;;;22.20;;
66741;SDS011;53654;54.152;19.432;2023-03-01T04:16:27;29.90;;;22.80;;
66741;SDS011;53654;54.152;19.432;2023-03-01T04:18:55;28.90;;;23.10;;
66741;SDS011;53654;54.152;19.432;2023-03-01T04:21:24;28.00;;;23.00;;
66741;SDS011;53654;54.152;19.432;2023-03-01T04:23:52;27.00;;;22.20;;
66741;SDS011;53654;54.152;19.432;2023-03-01T04:26:20;26.30;;;21.10;;
66741;SDS011;53654;54.152;19.432;2023-03-01T04:28:48;22.40;;;18.70;;
66741;SDS011;53654;54.152;19.432;2023-03-01T04:31:19;24.30;;;19.20;;
66741;SDS011;53654;54.152;19.432;2023-03-01T04:33:50;21.80;;;18.00;;
66741;SDS011;53654;54.152;19.432;2023-03-01T04:36:24;22.40;;;18.40;;
66741;SDS011;53654;54.152;19.432;2023-03-01T04:38:54;23.70;;;18.70;;
66741;SDS011;53654;54.152;19.432;2023-03-01T04:41:23;23.40;;;18.70;;
66741;SDS011;53654;54.152;19.432;2023-03-01T04:43:52;23.80;;;18.20;;
66741;SDS011;53654;54.152;19.432;2023-03-01T04:46:21;22.00;;;17.80;;
66741;SDS011;53654;54.152;19.432;2023-03-01T04:48:49;22.50;;;17.20;;
66741;SDS011;53654;54.152;19.432;2023-03-01T04:51:17;22.10;;;17.40;;
66741;SDS011;53654;54.152;19.432;2023-03-01T04:53:46;22.50;;;17.90;;
66741;SDS011;53654;54.152;19.432;2023-03-01T04:56:15;24.70;;;18.50;;
66741;SDS011;53654;54.152;19.432;2023-03-01T04:58:45;23.50;;;18.20;;
66741;SDS011;53654;54.152;19.432;2023-03-01T05:01:18;25.20;;;19.20;;
66741;SDS011;53654;54.152;19.432;2023-03-01T05:03:48;25.50;;;18.70;;
66741;SDS011;53654;54.152;19.432;2023-03-01T05:06:19;29.80;;;19.90;;
66741;SDS011;53654;54.152;19.432;2023-03-01T05:08:48;25.40;;;20.50;;
66741;SDS011;53654;54.152;19.432;2023-03-01T05:11:17;25.90;;;19.80;;
66741;SDS011;53654;54.152;19.432;2023-03-01T05:13:45;26.90;;;20.50;;
66741;SDS011;53654;54.152;19.432;2023-03-01T05:16:13;28.10;;;19.70;;
66741;SDS011;53654;54.152;19.432;2023-03-01T05:18:41;26.00;;;18.80;;
66741;SDS011;53654;54.152;19.432;2023-03-01T05:21:11;25.00;;;18.00;;
66741;SDS011;53654;54.152;19.432;2023-03-01T05:23:44;22.10;;;17.20;;
66741;SDS011;53654;54.152;19.432;2023-03-01T05:26:12;21.00;;;16.60;;
66741;SDS011;53654;54.152;19.432;2023-03-01T05:29:01;21.40;;;16.00;;
66741;SDS011;53654;54.152;19.432;2023-03-01T05:31:29;19.80;;;13.90;;
66741;SDS011;53654;54.152;19.432;2023-03-01T05:33:58;18.00;;;14.30;;
66741;SDS011;53654;54.152;19.432;2023-03-01T05:36:27;17.80;;;13.00;;
66741;SDS011;53654;54.152;19.432;2023-03-01T05:38:55;15.80;;;12.30;;
66741;SDS011;53654;54.152;19.432;2023-03-01T05:41:23;16.30;;;11.70;;
66741;SDS011;53654;54.152;19.432;2023-03-01T05:43:51;16.60;;;12.70;;
66741;SDS011;53654;54.152;19.432;2023-03-01T05:46:19;19.50;;;13.80;;
66741;SDS011;53654;54.152;19.432;2023-03-01T05:48:48;16.50;;;14.20;;
66741;SDS011;53654;54.152;19.432;2023-03-01T05:51:16;20.40;;;14.00;;
66741;SDS011;53654;54.152;19.432;2023-03-01T05:53:45;18.90;;;13.60;;
66741;SDS011;53654;54.152;19.432;2023-03-01T05:56:13;18.20;;;13.90;;
66741;SDS011;53654;54.152;19.432;2023-03-01T05:58:41;19.40;;;15.20;;
66741;SDS011;53654;54.152;19.432;2023-03-01T06:01:12;23.20;;;18.30;;
66741;SDS011;53654;54.152;19.432;2023-03-01T06:03:41;24.40;;;19.20;;
66741;SDS011;53654;54.152;19.432;2023-03-01T06:06:10;22.50;;;17.10;;
66741;SDS011;53654;54.152;19.432;2023-03-01T06:08:38;23.10;;;18.30;;
66741;SDS011;53654;54.152;19.432;2023-03-01T06:11:06;21.50;;;18.80;;
66741;SDS011;53654;54.152;19.432;2023-03-01T06:13:35;24.70;;;19.60;;
66741;SDS011;53654;54.152;19.432;2023-03-01T06:16:04;24.50;;;20.90;;
66741;SDS011;53654;54.152;19.432;2023-03-01T06:18:34;28.00;;;21.60;;
66741;SDS011;53654;54.152;19.432;2023-03-01T06:21:02;27.40;;;22.40;;
66741;SDS011;53654;54.152;19.432;2023-03-01T06:23:32;26.50;;;21.00;;
66741;SDS011;53654;54.152;19.432;2023-03-01T06:26:00;27.10;;;21.80;;
66741;SDS011;53654;54.152;19.432;2023-03-01T06:28:33;27.20;;;22.60;;
66741;SDS011;53654;54.152;19.432;2023-03-01T06:31:02;27.20;;;23.90;;
66741;SDS011;53654;54.152;19.432;2023-03-01T06:33:31;30.00;;;23.20;;
66741;SDS011;53654;54.152;19.432;2023-03-01T06:35:59;32.30;;;22.10;;
66741;SDS011;53654;54.152;19.432;2023-03-01T06:38:27;29.60;;;22.50;;
66741;SDS011;53654;54.152;19.432;2023-03-01T06:40:56;28.00;;;22.90;;
66741;SDS011;53654;54.152;19.432;2023-03-01T06:43:24;25.60;;;20.30;;
66741;SDS011;53654;54.152;19.432;2023-03-01T06:45:52;38.40;;;29.20;;
66741;SDS011;53654;54.152;19.432;2023-03-01T06:48:20;27.10;;;22.20;;
66741;SDS011;53654;54.152;19.432;2023-03-01T06:50:48;27.40;;;20.90;;
66741;SDS011;53654;54.152;19.432;2023-03-01T06:53:16;29.50;;;23.60;;
66741;SDS011;53654;54.152;19.432;2023-03-01T06:55:45;35.40;;;28.80;;
66741;SDS011;53654;54.152;19.432;2023-03-01T06:58:13;30.20;;;24.00;;
66741;SDS011;53654;54.152;19.432;2023-03-01T07:00:41;28.40;;;23.00;;
66741;SDS011;53654;54.152;19.432;2023-03-01T07:03:10;21.60;;;18.10;;
66741;SDS011;53654;54.152;19.432;2023-03-01T07:05:38;22.90;;;18.70;;
66741;SDS011;53654;54.152;19.432;2023-03-01T07:08:06;22.80;;;17.90;;
66741;SDS011;53654;54.152;19.432;2023-03-01T07:10:35;22.60;;;17.80;;
66741;SDS011;53654;54.152;19.432;2023-03-01T07:13:03;21.00;;;18.00;;
66741;SDS011;53654;54.152;19.432;2023-03-01T07:15:31;21.60;;;16.10;;
66741;SDS011;53654;54.152;19.432;2023-03-01T07:18:00;22.00;;;17.20;;
66741;SDS011;53654;54.152;19.432;2023-03-01T07:20:28;21.20;;;17.70;;
66741;SDS011;53654;54.152;19.432;2023-03-01T07:22:56;23.00;;;19.50;;
66741;SDS011;53654;54.152;19.432;2023-03-01T07:25:26;22.30;;;17.80;;
66741;SDS011;53654;54.152;19.432;2023-03-01T07:27:54;21.00;;;16.80;;
66741;SDS011;53654;54.152;19.432;2023-03-01T07:30:22;22.10;;;16.00;;
66741;SDS011;53654;54.152;19.432;2023-03-01T07:32:54;20.30;;;15.80;;
66741;SDS011;53654;54.152;19.432;2023-03-01T07:35:23;18.40;;;14.10;;
66741;SDS011;53654;54.152;19.432;2023-03-01T07:37:53;18.50;;;14.10;;
66741;SDS011;53654;54.152;19.432;2023-03-01T07:40:21;18.90;;;14.20;;
66741;SDS011;53654;54.152;19.432;2023-03-01T07:42:54;18.00;;;13.30;;
66741;SDS011;53654;54.152;19.432;2023-03-01T07:45:24;16.90;;;14.40;;
66741;SDS011;53654;54.152;19.432;2023-03-01T07:47:53;17.00;;;14.30;;
66741;SDS011;53654;54.152;19.432;2023-03-01T07:50:22;19.30;;;15.30;;
66741;SDS011;53654;54.152;19.432;2023-03-01T07:52:51;17.70;;;15.10;;
66741;SDS011;53654;54.152;19.432;2023-03-01T07:55:19;18.60;;;16.10;;
66741;SDS011;53654;54.152;19.432;2023-03-01T07:57:48;25.10;;;19.30;;
66741;SDS011;53654;54.152;19.432;2023-03-01T08:00:16;21.60;;;17.50;;
66741;SDS011;53654;54.152;19.432;2023-03-01T08:02:44;18.50;;;16.20;;
66741;SDS011;53654;54.152;19.432;2023-03-01T08:05:13;21.70;;;16.10;;
66741;SDS011;53654;54.152;19.432;2023-03-01T08:07:41;18.80;;;15.80;;
66741;SDS011;53654;54.152;19.432;2023-03-01T08:10:10;19.00;;;15.20;;
66741;SDS011;53654;54.152;19.432;2023-03-01T08:12:38;19.80;;;15.50;;
66741;SDS011;53654;54.152;19.432;2023-03-01T08:15:07;21.10;;;16.00;;
66741;SDS011;53654;54.152;19.432;2023-03-01T08:17:35;24.80;;;17.50;;
66741;SDS011;53654;54.152;19.432;2023-03-01T08:20:04;28.00;;;21.20;;
66741;SDS011;53654;54.152;19.432;2023-03-01T08:22:34;28.50;;;21.00;;
66741;SDS011;53654;54.152;19.432;2023-03-01T08:25:02;33.50;;;24.50;;
66741;SDS011;53654;54.152;19.432;2023-03-01T08:27:31;35.50;;;26.50;;
66741;SDS011;53654;54.152;19.432;2023-03-01T08:29:59;36.60;;;27.80;;
66741;SDS011;53654;54.152;19.432;2023-03-01T08:32:27;35.70;;;28.90;;
66741;SDS011;53654;54.152;19.432;2023-03-01T08:34:55;31.00;;;25.70;;
66741;SDS011;53654;54.152;19.432;2023-03-01T08:37:23;44.00;;;32.00;;
66741;SDS011;53654;54.152;19.432;2023-03-01T08:39:52;50.00;;;43.40;;
66741;SDS011;53654;54.152;19.432;2023-03-01T08:42:22;41.90;;;36.90;;
66741;SDS011;53654;54.152;19.432;2023-03-01T08:44:50;37.80;;;33.70;;
66741;SDS011;53654;54.152;19.432;2023-03-01T08:47:18;52.30;;;45.10;;
66741;SDS011;53654;54.152;19.432;2023-03-01T08:49:46;38.90;;;33.50;;
66741;SDS011;53654;54.152;19.432;2023-03-01T08:52:16;27.50;;;21.50;;
66741;SDS011;53654;54.152;19.432;2023-03-01T08:54:44;23.70;;;20.00;;
66741;SDS011;53654;54.152;19.432;2023-03-01T08:57:12;20.40;;;16.20;;
66741;SDS011;53654;54.152;19.432;2023-03-01T08:59:40;20.50;;;16.50;;
66741;SDS011;53654;54.152;19.432;2023-03-01T09:02:13;21.20;;;15.90;;
66741;SDS011;53654;54.152;19.432;2023-03-01T09:04:43;17.60;;;14.70;;
66741;SDS011;53654;54.152;19.432;2023-03-01T09:07:12;17.70;;;14.40;;
66741;SDS011;53654;54.152;19.432;2023-03-01T09:09:40;18.90;;;14.50;;
66741;SDS011;53654;54.152;19.432;2023-03-01T09:12:08;19.90;;;15.10;;
66741;SDS011;53654;54.152;19.432;2023-03-01T09:14:36;19.50;;;15.30;;
66741;SDS011;53654;54.152;19.432;2023-03-01T09:17:06;20.10;;;15.70;;
66741;SDS011;53654;54.152;19.432;2023-03-01T09:19:34;19.40;;;16.50;;
66741;SDS011;53654;54.152;19.432;2023-03-01T09:22:03;19.60;;;16.70;;
66741;SDS011;53654;54.152;19.432;2023-03-01T09:24:32;23.10;;;17.10;;
66741;SDS011;53654;54.152;19.432;2023-03-01T09:27:00;23.70;;;17.00;;
66741;SDS011;53654;54.152;19.432;2023-03-01T09:29:29;26.00;;;18.60;;
66741;SDS011;53654;54.152;19.432;2023-03-01T09:31:57;25.00;;;19.20;;
66741;SDS011;53654;54.152;19.432;2023-03-01T09:34:26;28.20;;;19.80;;
66741;SDS011;53654;54.152;19.432;2023-03-01T09:36:54;25.70;;;18.60;;
66741;SDS011;53654;54.152;19.432;2023-03-01T09:39:22;23.20;;;17.80;;
66741;SDS011;53654;54.152;19.432;2023-03-01T09:47:12;20.70;;;15.70;;
66741;SDS011;53654;54.152;19.432;2023-03-01T09:49:50;20.90;;;15.70;;
66741;SDS011;53654;54.152;19.432;2023-03-01T09:55:12;23.50;;;16.40;;
66741;SDS011;53654;54.152;19.432;2023-03-01T09:57:45;25.50;;;18.10;;
66741;SDS011;53654;54.152;19.432;2023-03-01T10:00:26;23.90;;;18.80;;
66741;SDS011;53654;54.152;19.432;2023-03-01T10:03:21;24.10;;;18.50;;
66741;SDS011;53654;54.152;19.432;2023-03-01T10:08:54;24.10;;;18.60;;
66741;SDS011;53654;54.152;19.432;2023-03-01T10:11:30;26.60;;;20.10;;
66741;SDS011;53654;54.152;19.432;2023-03-01T10:14:09;30.00;;;22.80;;
66741;SDS011;53654;54.152;19.432;2023-03-01T10:16:46;29.40;;;22.60;;
66741;SDS011;53654;54.152;19.432;2023-03-01T10:19:27;26.70;;;21.80;;
66741;SDS011;53654;54.152;19.432;2023-03-01T10:22:04;31.40;;;22.30;;
66741;SDS011;53654;54.152;19.432;2023-03-01T10:24:59;34.40;;;25.10;;
66741;SDS011;53654;54.152;19.432;2023-03-01T10:27:37;35.70;;;26.60;;
66741;SDS011;53654;54.152;19.432;2023-03-01T10:30:19;35.80;;;27.00;;
66741;SDS011;53654;54.152;19.432;2023-03-01T10:32:49;36.60;;;26.50;;
66741;SDS011;53654;54.152;19.432;2023-03-01T10:35:25;36.20;;;27.20;;
66741;SDS011;53654;54.152;19.432;2023-03-01T10:38:08;34.70;;;27.80;;
66741;SDS011;53654;54.152;19.432;2023-03-01T10:40:55;37.20;;;28.40;;
66741;SDS011;53654;54.152;19.432;2023-03-01T10:43:25;36.00;;;27.60;;
66741;SDS011;53654;54.152;19.432;2023-03-01T10:45:56;33.30;;;26.90;;
66741;SDS011;53654;54.152;19.432;2023-03-01T10:48:24;36.10;;;28.00;;
66741;SDS011;53654;54.152;19.432;2023-03-01T10:56:09;33.20;;;25.50;;
66741;SDS011;53654;54.152;19.432;2023-03-01T10:58:56;35.10;;;26.60;;
66741;SDS011;53654;54.152;19.432;2023-03-01T11:01:34;37.10;;;27.70;;
66741;SDS011;53654;54.152;19.432;2023-03-01T11:06:34;36.60;;;28.90;;
66741;SDS011;53654;54.152;19.432;2023-03-01T11:09:18;38.80;;;30.60;;
66741;SDS011;53654;54.152;19.432;2023-03-01T11:11:57;43.50;;;33.30;;
66741;SDS011;53654;54.152;19.432;2023-03-01T11:14:30;41.80;;;34.30;;
66741;SDS011;53654;54.152;19.432;2023-03-01T11:19:31;40.00;;;32.40;;
66741;SDS011;53654;54.152;19.432;2023-03-01T11:22:13;39.00;;;31.30;;
66741;SDS011;53654;54.152;19.432;2023-03-01T11:24:49;39.20;;;31.90;;
66741;SDS011;53654;54.152;19.432;2023-03-01T11:27:40;39.40;;;31.50;;
66741;SDS011;53654;54.152;19.432;2023-03-01T11:30:21;37.50;;;31.90;;
66741;SDS011;53654;54.152;19.432;2023-03-01T11:33:02;39.00;;;32.60;;
66741;SDS011;53654;54.152;19.432;2023-03-01T11:35:42;38.40;;;31.10;;
66741;SDS011;53654;54.152;19.432;2023-03-01T11:38:24;39.80;;;29.90;;
66741;SDS011;53654;54.152;19.432;2023-03-01T11:43:46;34.30;;;27.40;;
66741;SDS011;53654;54.152;19.432;2023-03-01T11:48:57;36.80;;;28.50;;
66741;SDS011;53654;54.152;19.432;2023-03-01T11:51:38;37.80;;;28.70;;
66741;SDS011;53654;54.152;19.432;2023-03-01T11:54:23;34.30;;;27.50;;
66741;SDS011;53654;54.152;19.432;2023-03-01T12:08:58;26.50;;;21.40;;
66741;SDS011;53654;54.152;19.432;2023-03-01T12:17:48;29.70;;;25.30;;
66741;SDS011;53654;54.152;19.432;2023-03-01T12:20:34;28.90;;;23.20;;
66741;SDS011;53654;54.152;19.432;2023-03-01T12:44:15;33.10;;;27.80;;
66741;SDS011;53654;54.152;19.432;2023-03-01T12:49:46;36.70;;;29.70;;
66741;SDS011;53654;54.152;19.432;2023-03-01T12:54:51;37.40;;;30.50;;
66741;SDS011;53654;54.152;19.432;2023-03-01T13:09:06;35.50;;;29.40;;
66741;SDS011;53654;54.152;19.432;2023-03-01T13:11:46;33.80;;;30.10;;
66741;SDS011;53654;54.152;19.432;2023-03-01T13:16:49;35.00;;;29.60;;
66741;SDS011;53654;54.152;19.432;2023-03-01T13:19:23;32.20;;;28.50;;
66741;SDS011;53654;54.152;19.432;2023-03-01T13:21:53;35.90;;;29.80;;
66741;SDS011;53654;54.152;19.432;2023-03-01T13:32:27;33.00;;;26.80;;
66741;SDS011;53654;54.152;19.432;2023-03-01T13:37:42;29.90;;;25.60;;
66741;SDS011;53654;54.152;19.432;2023-03-01T13:42:53;29.70;;;25.70;;
66741;SDS011;53654;54.152;19.432;2023-03-01T13:45:36;30.10;;;25.30;;
66741;SDS011;53654;54.152;19.432;2023-03-01T13:48:11;28.30;;;25.30;;
66741;SDS011;53654;54.152;19.432;2023-03-01T13:50:50;30.30;;;25.20;;
66741;SDS011;53654;54.152;19.432;2023-03-01T13:53:24;27.10;;;24.10;;
66741;SDS011;53654;54.152;19.432;2023-03-01T13:56:07;27.80;;;23.80;;
66741;SDS011;53654;54.152;19.432;2023-03-01T13:58:49;29.10;;;24.80;;
66741;SDS011;53654;54.152;19.432;2023-03-01T14:01:22;27.90;;;23.20;;
66741;SDS011;53654;54.152;19.432;2023-03-01T14:03:58;28.90;;;23.90;;
66741;SDS011;53654;54.152;19.432;2023-03-01T14:06:29;29.10;;;25.10;;
66741;SDS011;53654;54.152;19.432;2023-03-01T14:09:01;28.20;;;24.70;;
66741;SDS011;53654;54.152;19.432;2023-03-01T14:19:42;26.00;;;22.90;;
66741;SDS011;53654;54.152;19.432;2023-03-01T14:24:58;27.50;;;22.00;;
66741;SDS011;53654;54.152;19.432;2023-03-01T14:27:38;25.60;;;22.30;;
66741;SDS011;53654;54.152;19.432;2023-03-01T14:30:11;25.50;;;22.10;;
66741;SDS011;53654;54.152;19.432;2023-03-01T14:32:51;26.00;;;21.70;;
66741;SDS011;53654;54.152;19.432;2023-03-01T14:35:31;23.80;;;21.20;;
66741;SDS011;53654;54.152;19.432;2023-03-01T14:38:02;24.80;;;21.70;;
66741;SDS011;53654;54.152;19.432;2023-03-01T14:40:35;25.30;;;21.80;;
66741;SDS011;53654;54.152;19.432;2023-03-01T14:43:11;26.50;;;22.80;;
66741;SDS011;53654;54.152;19.432;2023-03-01T14:45:48;27.50;;;23.70;;
66741;SDS011;53654;54.152;19.432;2023-03-01T14:48:18;28.90;;;23.10;;
66741;SDS011;53654;54.152;19.432;2023-03-01T14:50:46;26.90;;;23.30;;
66741;SDS011;53654;54.152;19.432;2023-03-01T14:53:20;25.70;;;22.80;;
66741;SDS011;53654;54.152;19.432;2023-03-01T14:55:55;26.50;;;22.50;;
66741;SDS011;53654;54.152;19.432;2023-03-01T14:58:28;24.30;;;21.70;;
66741;SDS011;53654;54.152;19.432;2023-03-01T15:00:57;24.90;;;22.10;;
66741;SDS011;53654;54.152;19.432;2023-03-01T15:06:07;27.30;;;23.40;;
66741;SDS011;53654;54.152;19.432;2023-03-01T15:08:36;26.10;;;23.30;;
66741;SDS011;53654;54.152;19.432;2023-03-01T15:13:56;26.40;;;23.30;;
66741;SDS011;53654;54.152;19.432;2023-03-01T15:16:30;25.20;;;22.30;;
66741;SDS011;53654;54.152;19.432;2023-03-01T15:19:01;24.80;;;21.70;;
66741;SDS011;53654;54.152;19.432;2023-03-01T15:26:51;27.80;;;24.50;;
66741;SDS011;53654;54.152;19.432;2023-03-01T15:29:24;28.90;;;25.20;;
66741;SDS011;53654;54.152;19.432;2023-03-01T15:38:03;27.60;;;24.50;;
66741;SDS011;53654;54.152;19.432;2023-03-01T15:40:31;27.70;;;24.60;;
66741;SDS011;53654;54.152;19.432;2023-03-01T15:43:00;27.00;;;24.30;;
66741;SDS011;53654;54.152;19.432;2023-03-01T15:45:33;27.20;;;24.10;;
66741;SDS011;53654;54.152;19.432;2023-03-01T15:48:05;26.40;;;23.60;;
66741;SDS011;53654;54.152;19.432;2023-03-01T15:50:54;29.60;;;24.20;;
66741;SDS011;53654;54.152;19.432;2023-03-01T15:53:25;27.00;;;24.10;;
66741;SDS011;53654;54.152;19.432;2023-03-01T15:55:55;26.80;;;23.10;;
66741;SDS011;53654;54.152;19.432;2023-03-01T15:58:24;28.10;;;23.60;;
66741;SDS011;53654;54.152;19.432;2023-03-01T16:00:52;27.70;;;24.70;;
66741;SDS011;53654;54.152;19.432;2023-03-01T16:03:28;28.10;;;25.00;;
66741;SDS011;53654;54.152;19.432;2023-03-01T16:05:57;28.00;;;24.80;;
66741;SDS011;53654;54.152;19.432;2023-03-01T16:08:25;29.80;;;26.70;;
66741;SDS011;53654;54.152;19.432;2023-03-01T16:10:53;30.90;;;27.70;;
66741;SDS011;53654;54.152;19.432;2023-03-01T16:13:22;29.60;;;25.20;;
66741;SDS011;53654;54.152;19.432;2023-03-01T16:15:50;29.70;;;26.50;;
66741;SDS011;53654;54.152;19.432;2023-03-01T16:18:19;32.30;;;27.80;;
66741;SDS011;53654;54.152;19.432;2023-03-01T16:20:47;32.10;;;28.60;;
66741;SDS011;53654;54.152;19.432;2023-03-01T16:23:16;32.30;;;28.70;;
66741;SDS011;53654;54.152;19.432;2023-03-01T16:25:44;32.70;;;29.30;;
66741;SDS011;53654;54.152;19.432;2023-03-01T16:28:12;36.00;;;31.90;;
66741;SDS011;53654;54.152;19.432;2023-03-01T16:30:45;35.60;;;31.80;;
66741;SDS011;53654;54.152;19.432;2023-03-01T16:33:15;36.00;;;32.10;;
66741;SDS011;53654;54.152;19.432;2023-03-01T16:36:00;35.60;;;31.00;;
66741;SDS011;53654;54.152;19.432;2023-03-01T16:38:34;37.20;;;32.20;;
66741;SDS011;53654;54.152;19.432;2023-03-01T16:41:02;32.20;;;28.70;;
66741;SDS011;53654;54.152;19.432;2023-03-01T16:43:30;32.80;;;29.40;;
66741;SDS011;53654;54.152;19.432;2023-03-01T16:45:58;31.30;;;27.90;;
66741;SDS011;53654;54.152;19.432;2023-03-01T16:48:27;35.30;;;29.70;;
66741;SDS011;53654;54.152;19.432;2023-03-01T16:50:58;33.20;;;28.70;;
66741;SDS011;53654;54.152;19.432;2023-03-01T16:53:28;33.10;;;27.90;;
66741;SDS011;53654;54.152;19.432;2023-03-01T16:55:57;31.90;;;28.50;;